Latest Coastal Weather Observations for Rosslyn Bay Harbour

IDQ60701

Issued at 7:12 am EST Friday 21 June 2019 (issued every 10 minutes, with the page automatically refreshed every 10 minutes)

About coastal observations | Map of coastal stations | Coastal observations for QLD | Marine services | Other Formats
Station Details ID: 033208 Name: ROSSLYN BAY NTC AWS Lat: -23.16 Lon: 150.79 Height: 0.0 m
Data from the previous 72 hours. | See also: Recent months for locations in Queensland
Date/Time
EST
Wind Sea
Height
m
Swell Vis
km
Cloud Weather Temp
°C
Press
hPa
Rain since
9am
mm
Dir  Spd
kts
Gust
kts
Height
m
Period
s
Dir
21/07:00am W 3 5 - - - - - - - 12.7 1019.1 -
21/06:30am WNW 3 5 - - - - - - - 13.2 1018.8 -
21/06:00am WNW 4 6 - - - - - - - 13.7 1018.5 -
21/05:30am SSW 4 5 - - - - - - - 16.1 1018.0 -
21/05:00am S 3 4 - - - - - - - 15.7 1017.8 -
21/04:30am SSW 4 6 - - - - - - - 15.6 1017.6 -
21/04:00am S 3 5 - - - - - - - 15.5 1017.7 -
21/03:30am S 3 5 - - - - - - - 15.7 1017.9 -
21/03:00am S 3 5 - - - - - - - 15.7 1018.2 -
21/02:30am S 1 3 - - - - - - - 15.8 1018.3 -
21/02:00am S 3 5 - - - - - - - 15.9 1018.3 -
21/01:30am SSW 2 5 - - - - - - - 16.2 1018.7 -
21/01:00am S 1 3 - - - - - - - 16.6 1018.7 -
21/12:30am S 3 6 - - - - - - - 16.7 1019.0 -
21/12:00am S 2 5 - - - - - - - 16.7 1019.3 -
 
Date/Time
EST
Wind Sea
Height
m
Swell Vis
km
Cloud Weather Temp
°C
Press
hPa
Rain since
9am
mm
Dir  Spd
kts
Gust
kts
Height
m
Period
s
Dir
20/11:30pm S 2 3 - - - - - - - 17.4 1019.2 -
20/11:00pm S 3 4 - - - - - - - 17.2 1019.3 -
20/10:30pm S 3 4 - - - - - - - 18.3 1019.5 -
20/10:00pm S 3 5 - - - - - - - 18.4 1019.6 -
20/09:30pm SSE 1 2 - - - - - - - 18.7 1019.7 -
20/09:00pm SW 1 2 - - - - - - - 19.9 1019.6 -
20/08:30pm WSW 1 4 - - - - - - - 20.0 1019.3 -
20/08:00pm SW 2 5 - - - - - - - 20.1 1019.4 -
20/07:30pm WSW 1 4 - - - - - - - 20.3 1019.0 -
20/07:00pm WSW 2 5 - - - - - - - 20.4 1018.7 -
20/06:30pm SSE 1 4 - - - - - - - 20.3 1018.4 -
20/06:00pm SW 1 3 - - - - - - - 20.3 1018.0 -
20/05:30pm SSE 1 5 - - - - - - - 20.6 1017.8 -
20/05:00pm S 2 3 - - - - - - - 20.9 1017.7 -
20/04:30pm S 1 5 - - - - - - - 21.3 1017.5 -
20/04:00pm S 2 4 - - - - - - - 21.2 1017.5 -
20/03:30pm S 2 6 - - - - - - - 21.6 1017.4 -
20/03:00pm S 5 8 - - - - - - - 20.7 1017.4 -
20/02:30pm S 4 9 - - - - - - - 20.7 1017.5 -
20/02:00pm S 7 9 - - - - - - - 20.3 1017.6 -
20/01:30pm S 5 9 - - - - - - - 20.4 1017.7 -
20/01:00pm S 6 8 - - - - - - - 20.2 1018.1 -
20/12:30pm S 6 9 - - - - - - - 20.2 1018.5 -
20/12:00pm SSE 5 8 - - - - - - - 20.3 1019.0 -
20/11:30am S 4 7 - - - - - - - 20.6 1019.3 -
20/11:00am SSW 4 8 - - - - - - - 20.5 1019.6 -
20/10:30am S 4 8 - - - - - - - 20.3 1019.9 -
20/10:00am SSW 6 10 - - - - - - - 19.4 1020.2 -
20/09:30am SSW 7 10 - - - - - - - 18.5 1020.1 -
20/09:00am SSW 7 10 - - - - - - - 17.3 1020.1 -
20/08:30am SW 2 6 - - - - - - - 16.0 1019.8 -
20/08:00am SSW 3 5 - - - - - - - 14.9 1019.5 -
20/07:30am S 4 5 - - - - - - - 14.3 1019.3 -
20/07:00am SSW 2 5 - - - - - - - 14.2 1019.1 -
20/06:30am SSW 2 4 - - - - - - - 14.4 1018.6 -
20/06:00am SSW 3 5 - - - - - - - 13.7 1018.3 -
20/05:30am W 1 2 - - - - - - - 12.8 1018.2 -
20/05:00am WSW 2 3 - - - - - - - 12.8 1017.8 -
20/04:30am WNW 2 3 - - - - - - - 13.2 1017.7 -
20/04:00am W 2 3 - - - - - - - 13.4 1017.6 -
20/03:30am W 2 3 - - - - - - - 13.0 1017.8 -
20/03:00am W 2 3 - - - - - - - 13.4 1017.8 -
20/02:30am W 1 3 - - - - - - - 13.4 1017.9 -
20/02:00am W 2 3 - - - - - - - 13.9 1018.1 -
20/01:30am W 2 3 - - - - - - - 14.8 1018.0 -
20/01:00am WSW 2 3 - - - - - - - 14.8 1018.3 -
20/12:30am SW 1 2 - - - - - - - 15.1 1018.3 -
20/12:00am CALM 0 1 - - - - - - - 15.5 1018.4 -
 
Date/Time
EST
Wind Sea
Height
m
Swell Vis
km
Cloud Weather Temp
°C
Press
hPa
Rain since
9am
mm
Dir  Spd
kts
Gust
kts
Height
m
Period
s
Dir
19/11:30pm W 1 2 - - - - - - - 16.2 1018.5 -
19/11:00pm WSW 1 2 - - - - - - - 16.3 1018.6 -
19/10:30pm CALM 0 1 - - - - - - - 16.4 1018.7 -
19/10:00pm CALM 0 1 - - - - - - - 16.3 1019.0 -
19/09:30pm W 1 2 - - - - - - - 16.1 1019.2 -
19/09:00pm CALM 0 1 - - - - - - - 17.1 1019.1 -
19/08:30pm CALM 0 1 - - - - - - - 17.6 1019.1 -
19/08:00pm CALM 0 2 - - - - - - - 17.8 1019.0 -
19/07:30pm WSW 1 2 - - - - - - - 18.1 1018.9 -
19/07:00pm NNE 3 5 - - - - - - - 19.6 1018.6 -
19/06:30pm NNE 4 6 - - - - - - - 19.7 1018.2 -
19/06:00pm NE 3 6 - - - - - - - 19.7 1017.8 -
19/05:30pm ENE 4 6 - - - - - - - 19.8 1017.4 -
19/05:00pm NE 5 7 - - - - - - - 19.8 1017.2 -
19/04:30pm ENE 7 9 - - - - - - - 19.8 1016.9 -
19/04:00pm NE 5 9 - - - - - - - 19.8 1016.6 -
19/03:30pm S 2 4 - - - - - - - 20.6 1016.5 -
19/03:00pm SW 2 6 - - - - - - - 20.5 1016.7 -
19/02:30pm SW 2 6 - - - - - - - 20.4 1016.8 -
19/02:00pm SW 2 5 - - - - - - - 20.3 1017.0 -
19/01:30pm S 3 9 - - - - - - - 20.1 1017.1 -
19/01:00pm S 8 13 - - - - - - - 19.4 1017.4 -
19/12:30pm S 8 12 - - - - - - - 19.3 1018.0 -
19/12:00pm S 7 12 - - - - - - - 19.2 1018.4 -
19/11:30am SSE 7 11 - - - - - - - 19.5 1019.0 -
19/11:00am S 5 10 - - - - - - - 19.4 1019.3 -
19/10:30am S 5 9 - - - - - - - 19.5 1019.4 -
19/10:00am S 5 10 - - - - - - - 19.0 1019.6 -
19/09:30am SSW 6 9 - - - - - - - 18.5 1019.7 -
19/09:00am SSW 5 8 - - - - - - - 17.6 1019.7 -
19/08:30am SSW 5 8 - - - - - - - 16.3 1019.4 -
19/08:00am SSW 4 6 - - - - - - - 15.4 1019.2 -
19/07:30am SSW 6 8 - - - - - - - 14.5 1018.9 -
19/07:00am SSW 6 8 - - - - - - - 14.0 1018.5 -
19/06:30am SSW 6 9 - - - - - - - 14.1 1018.1 -
19/06:00am S 5 7 - - - - - - - 14.3 1017.8 -
19/05:30am SSW 6 8 - - - - - - - 14.0 1017.5 -
19/05:00am SSW 5 8 - - - - - - - 14.1 1017.2 -
19/04:30am SSW 5 7 - - - - - - - 14.6 1017.1 -
19/04:00am SSW 4 6 - - - - - - - 14.7 1017.0 -
19/03:30am SSW 5 7 - - - - - - - 14.9 1017.2 -
19/03:00am SSW 5 7 - - - - - - - 14.9 1017.3 -
19/02:30am SSW 5 7 - - - - - - - 14.7 1017.4 -
19/02:00am S 5 9 - - - - - - - 15.0 1017.6 -
19/01:30am SSW 6 8 - - - - - - - 15.6 1017.7 -
19/01:00am SSW 6 8 - - - - - - - 15.9 1017.7 -
19/12:30am SSW 6 8 - - - - - - - 16.2 1017.9 -
19/12:00am SSW 6 8 - - - - - - - 17.3 1018.1 -
 
Date/Time
EST
Wind Sea
Height
m
Swell Vis
km
Cloud Weather Temp
°C
Press
hPa
Rain since
9am
mm
Dir  Spd
kts
Gust
kts
Height
m
Period
s
Dir
18/11:30pm SSW 5 7 - - - - - - - 17.6 1018.2 -
18/11:00pm SSW 5 8 - - - - - - - 17.8 1018.2 -
18/10:30pm SW 4 6 - - - - - - - 18.0 1018.3 -
18/10:00pm W 3 4 - - - - - - - 17.1 1018.3 -
18/09:30pm SW 2 3 - - - - - - - 16.4 1018.2 -
18/09:00pm WSW 1 2 - - - - - - - 17.0 1018.3 -
18/08:30pm CALM 0 3 - - - - - - - 17.6 1018.1 -
18/08:00pm W 1 3 - - - - - - - 17.8 1017.9 -
18/07:30pm W 2 3 - - - - - - - 17.7 1017.7 -
18/07:00pm W 2 3 - - - - - - - 18.2 1017.4 -
18/06:30pm NNW 5 6 - - - - - - - 19.5 1017.1 -
18/06:00pm NNE 3 7 - - - - - - - 19.8 1016.5 -
18/05:30pm NNE 5 9 - - - - - - - 19.9 1016.3 -
18/05:00pm NNE 5 8 - - - - - - - 20.0 1016.1 -
18/04:30pm ENE 8 10 - - - - - - - 19.9 1015.7 -
18/04:00pm ENE 6 8 - - - - - - - 20.0 1015.5 -
18/03:30pm ENE 5 11 - - - - - - - 20.5 1015.3 -
18/03:00pm NE 9 11 - - - - - - - 19.8 1015.3 -
18/02:30pm NE 9 10 - - - - - - - 19.6 1015.6 -
18/02:00pm NE 9 10 - - - - - - - 19.4 1015.9 -
18/01:30pm ENE 7 10 - - - - - - - 19.1 1016.3 -
18/01:00pm ENE 7 8 - - - - - - - 18.8 1016.9 -
18/12:30pm ENE 4 5 - - - - - - - 18.4 1017.4 -
18/12:00pm NE 3 4 - - - - - - - 18.2 1018.0 -
18/11:30am NE 4 7 - - - - - - - 18.1 1018.2 -
18/11:00am S 3 5 - - - - - - - 18.2 1018.5 -
18/10:30am S 4 6 - - - - - - - 17.6 1018.7 -
18/10:00am SSE 4 6 - - - - - - - 17.9 1018.9 -
18/09:30am SSW 3 6 - - - - - - - 17.1 1019.0 -
18/09:00am SSW 4 6 - - - - - - - 16.4 1019.2 -
18/08:30am SSW 3 5 - - - - - - - 15.4 1018.8 -
18/08:00am W 4 6 - - - - - - - 13.3 1018.6 -
18/07:30am W 4 6 - - - - - - - 12.2 1018.4 -

Other formats

Comma delimited format used in spreadsheet applications
http://www.bom.gov.au/fwo/IDQ60701/IDQ60701.95298.axf

JavaScript Object Notation format (JSON) in row-major order
http://www.bom.gov.au/fwo/IDQ60701/IDQ60701.95298.json

Data quality

Most of these data are generated automatically and are frequently updated. Quality checks on data are not normally performed. It is possible for incorrect values to appear. Refer to information at About Latest Weather Observations and please check the disclaimer before using these data.